Gallup Municipal Airport
KGUP : now visible

Airfield :











YOU CAN JOIN US ON...

 
LOGIN :

Register | Disclaimer

   EN    FR    IT 

 









Legend :    VFR   Marginal VFR   IFR   Intensive IFR   Very Intensive IFR
Visi :
Ceiling :
>= 8 km
>= 3000ft
5 to 8 km
1000 to 3000 ft
1500m to 5 km
500 to 1000 ft
800 to 1500m
200 to 500 ft
< 800m
< 200 ft
Symbols :   Thunderstorms  Fog  Heavy snow  Heavy precipitations  Wind > 20 kt






- Airport Elevation : 6472 ft
- IATA code : GUP


KGUP - Gallup Municipal

CURRENT METAR :
  • 021753Z AUTO VRB03KT 10SM FEW045 24/13 A3040 RMK AO2 LTG DSNT SE SLP132 60000 T02440128 10261 20167 58010

EXPIRED METARs :
  • 021653Z AUTO VRB03KT 10SM CLR 24/13 A3042 RMK AO2 SLP133 T02440133
  • 021553Z AUTO 16005KT 10SM FEW100 22/13 A3042 RMK AO2 SLP139 T02220133

TAF KGUP
Valid from the 02 at 18:00 until the 03 at 18:00 UTC


021738Z 0218/0318 VRB05KT P6SM SCT100
FM022000 34006KT P6SM VCSH SCT090
TEMPO 0220/0223 5SM TSRA BKN070CB
FM030300 VRB04KT P6SM SCT100
KZAB FIR / North America



MET'MAP, your aeronautical weather chart ! - Copyright ORBIFLY December 2007 - Disclaimer

ORBIFLY MET'MAP TEAM :

Programming & Development : Alexandra Zaïnal
Concept & original design : Baudouin d'Aumeries
Assistance for programming : Marc-Olivier Méhu
Technical & hardware support : Manuel Goepfert

Contact : metmap@orbifly.com




SOURCES & CREDITS :

   NOAA       Earth
Advisory